Herbert C Jackson — WL3972 — position and weather

sailwx.info

Track history (hours):
 
Tides and Currents Weather Stations Pressure Air Temp Water Temp Dewpoint Dewpoint Depression Visibility Wind Speed Wind Dir Waves Ship Positions

Herbert C Jackson

Owner: THE INTERLAKE STEAMSHIP COMPANY, Middleburg Heights, OH. More information available from US FCC via Universal Licensing System and Coast Guard Vessel Documentation Center.

Last reported at 2017-Apr-28 21:00 UTC. Time now 2017-Apr-28 23:52 UTC.
Position N 45°48' W 083°12'.

Length 239 m; draft 6.2 m.

Type: Cargo ship. MMSI: 366904930.

Wind from 280 at 31 knots

Barometer 1011.6 mb
Air temperature 3.0 ° C
Water temperature 2.9 ° C

Date/timePositionNaut miles runAvg speedWind from/ knotsBaromVisibWave heightAir tempDewpointWater temp
2017-Apr-28 21:00N 45°48' W 083°12'1212.0 280 / 311011.6 3.0 2.9
2017-Apr-28 20:00N 45°36' W 083°12'1312.7 300 / 221012.0 2.9 2.6
2017-Apr-28 19:00N 45°24' W 083°06'8113.5 350 / 131012.0 2.8 2.8
2017-Apr-28 13:00N 44°06' W 082°36'1312.8 240 / 171012.310.8 6.9 2.9
2017-Apr-28 12:00N 43°54' W 082°30'1818.0 240 / 191012.0 7.3 3.5
2017-Apr-28 11:00N 43°36' W 082°30'1212.0 230 / 221012.3 7.4 3.9
2017-Apr-28 10:00N 43°24' W 082°30'1312.8 240 / 141012.0 8.4 5.0
2017-Apr-28 09:00N 43°12' W 082°24'1212.0 230 / 91011.3 9.6 5.2
2017-Apr-28 08:00N 43°00' W 082°24'1312.8 220 / 81011.3 10.3 6.2
2017-Apr-28 07:00N 42°48' W 082°30'6 6.0 240 / 61011.3 10.2 6.6
2017-Apr-28 06:00N 42°42' W 082°30'1312.8 250 / 141010.6 10.5 7.2
2017-Apr-28 05:00N 42°30' W 082°36'1110.7 270 / 131010.1 10.7 7.5
2017-Apr-28 04:00N 42°24' W 082°48'1110.7 270 / 191009.8 11.1 9.0
2017-Apr-28 03:00N 42°18' W 083°00'4 4.4 250 / 261008.7 11.2 10.5
2017-Apr-28 02:00N 42°18' W 083°06'0 0.0 230 / 121007.7 11.9 10.8
2017-Apr-28 01:00N 42°18' W 083°06'0 0.0 240 / 151006.4 12.5 10.9
2017-Apr-28 00:00N 42°18' W 083°06'1212.0 240 / 151005.4 14.1 10.8
2017-Apr-27 23:00N 42°06' W 083°06'6 6.0 230 / 271004.3 14.3 10.4
2017-Apr-27 22:00N 42°00' W 083°06'1110.8 240 / 331003.2 14.9 10.7
2017-Apr-27 21:00N 41°54' W 082°54'1313.4 230 / 281001.2 14.9 9.5
2017-Apr-27 20:00N 41°54' W 082°36'1110.8 230 / 251000.5 15.1 9.2
2017-Apr-27 19:00N 41°48' W 082°24'1514.7 190 / 211000.5 14.2 6.8
2017-Apr-27 18:00N 41°42' W 082°06'1110.8 250 / 181000.2 13.8 8.5
2017-Apr-27 17:00N 41°36' W 081°54'1110.8 180 / 261000.2 22.0 10.4
2017-Apr-27 16:00N 41°30' W 081°42'0 0.0 180 / 201000.8 25.9 11.5
2017-Apr-27 15:00N 41°30' W 081°42'0 0.0 180 / 211001.2 24.1 11.5
2017-Apr-27 14:00N 41°30' W 081°42'0 0.0 160 / 171001.2 23.8 12.0
2017-Apr-27 13:00N 41°30' W 081°42'0 0.0 130 / 81001.9 22.2 16.0
2017-Apr-27 12:00N 41°30' W 081°42'0 0.0 130 / 41002.5 21.6 16.5
2017-Apr-27 11:00N 41°30' W 081°42'0 0.0 150 / 91002.5 21.2 17.2
2017-Apr-27 10:00N 41°30' W 081°42'0 0.0 140 / 101001.9 21.0 17.1
2017-Apr-27 09:00N 41°30' W 081°42'0 0.0 270 / 21001.5 20.3 16.3
2017-Apr-27 08:00N 41°30' W 081°42'0 0.0 150 / 41001.9 21.0 16.2
2017-Apr-27 07:00N 41°30' W 081°42'0 0.0 150 / 21002.2 21.4 16.2
2017-Apr-27 06:00N 41°30' W 081°42'0 0.0 140 / 81002.2 20.8 16.9
2017-Apr-27 05:00N 41°30' W 081°42'0 0.0 140 / 81002.5 22.3 16.0
2017-Apr-27 04:00N 41°30' W 081°42'0 0.0 070 / 51002.9 22.7 15.6
2017-Apr-27 03:00N 41°30' W 081°42'0 0.0 140 / 71003.2 24.1 14.3
2017-Apr-27 02:00N 41°30' W 081°42'0 0.0 150 / 71002.9 24.9 10.5
2017-Apr-27 01:00N 41°30' W 081°42'0 0.0 150 / 91002.5 25.9 10.2
2017-Apr-27 00:00N 41°30' W 081°42'0 0.0 140 / 91002.5 27.0 10.0
2017-Apr-26 23:00N 41°30' W 081°42'0 0.0 170 / 121001.9 27.9 10.1
2017-Apr-26 22:00N 41°30' W 081°42'0 0.0 160 / 141001.9 27.9 10.2
2017-Apr-26 21:00N 41°30' W 081°42'0 0.0 150 / 141001.9 27.6 10.4
2017-Apr-26 20:00N 41°30' W 081°42'0 0.0 140 / 171002.5 26.5 10.4
2017-Apr-26 19:00N 41°30' W 081°42'0 0.0 190 / 81003.9 26.4 10.2
2017-Apr-26 17:00N 41°30' W 081°42'1110.8 130 / 161004.9 23.2 9.7
2017-Apr-26 16:00N 41°36' W 081°54'1110.8 100 / 121005.6 17.8 7.9
2017-Apr-26 15:00N 41°42' W 082°06'1514.7 100 / 151005.9 11.7 6.4
2017-Apr-26 14:00N 41°48' W 082°24'1514.7 100 / 161005.9 9.5 6.5
2017-Apr-26 13:00N 41°54' W 082°42'9 8.9 110 / 151006.3 10.8 8.3
2017-Apr-26 12:00N 41°54' W 082°54'9 8.9 120 / 281005.9 11.2 9.0
2017-Apr-26 11:00N 41°54' W 083°06'1212.0 100 / 171005.6 11.4 9.7
2017-Apr-26 10:00N 42°06' W 083°06'1212.0 100 / 111005.7 13.1 9.3
2017-Apr-26 09:00N 42°18' W 083°06'1110.7 120 / 71006.4 13.0 9.2
2017-Apr-26 08:00N 42°24' W 082°54'1110.7 100 / 81006.4 12.1 8.3
2017-Apr-26 07:00N 42°30' W 082°42'7 7.5 120 / 151007.0 9.5 6.9
2017-Apr-26 06:00N 42°36' W 082°36'7 7.4 120 / 71008.3 11.6 6.4
2017-Apr-26 05:00N 42°42' W 082°30'1212.0 140 / 81007.9 13.1 6.4
2017-Apr-26 04:00N 42°54' W 082°30'7 7.4 120 / 101007.9 14.6 6.3
2017-Apr-26 03:00N 43°00' W 082°24'1212.0 120 / 161007.6 13.9 5.7
2017-Apr-26 02:00N 43°12' W 082°24'1212.0 100 / 231007.2 9.9 3.6
2017-Apr-26 01:00N 43°24' W 082°24'1918.5 100 / 231006.9 8.1 3.0
2017-Apr-26 00:00N 43°42' W 082°30'1212.0 110 / 181007.2 7.8 2.8
2017-Apr-25 23:00N 43°54' W 082°30'1312.8 110 / 201007.6 8.2 2.8
2017-Apr-25 22:00N 44°06' W 082°36'1312.7 100 / 121008.6 6.9 2.9
2017-Apr-25 21:00N 44°18' W 082°42'2412.2 110 / 161008.9 6.9 2.7
2017-Apr-25 19:00N 44°42' W 082°48'1312.7 130 / 201009.3 5.5 2.5
2017-Apr-25 18:00N 44°54' W 082°54'1312.7 120 / 221009.6 4.7 2.7
2017-Apr-25 17:00N 45°06' W 083°00'7 7.3 120 / 161010.6 4.5 2.6
2017-Apr-25 16:00N 45°12' W 083°06'1514.7 120 / 171011.3 4.1 2.8
2017-Apr-25 15:00N 45°24' W 083°18'1514.7 110 / 201011.0 3.9 2.4
2017-Apr-25 14:00N 45°36' W 083°30'2512.3 090 / 221011.3 3.7 2.1
2017-Apr-25 12:00N 45°54' W 083°54'1312.7 090 / 251012.0 4.3 3.0
2017-Apr-25 11:00N 46°06' W 084°00'7 7.3 070 / 171013.0 4.0 4.4
2017-Apr-25 10:00N 46°12' W 084°06'7 7.3 100 / 161012.7 5.5 4.0
2017-Apr-25 09:00N 46°18' W 084°12'7 7.3 110 / 81013.7 4.9 3.1
2017-Apr-25 08:00N 46°24' W 084°18'6 6.0 110 / 201013.0 6.6 2.9
2017-Apr-25 07:00N 46°30' W 084°18'4 4.1 120 / 91014.0 7.2 2.8
2017-Apr-25 06:00N 46°30' W 084°24'0 0.0 120 / 101014.2 7.5 2.7
2017-Apr-25 05:00N 46°30' W 084°24'8 8.3 110 / 141013.5 7.4 2.3
2017-Apr-25 04:00N 46°30' W 084°36'1514.6 110 / 301011.5 6.4 1.4
2017-Apr-25 03:00N 46°42' W 084°48'1010.2 110 / 221012.5 5.7 1.3
2017-Apr-25 02:00N 46°48' W 085°00'1212.3 140 / 221012.2 4.9 1.8
2017-Apr-25 01:00N 46°48' W 085°18'1212.3 120 / 221012.2 6.0 2.7
2017-Apr-25 00:00N 46°48' W 085°36'1212.3 110 / 221011.5 6.6 2.3
2017-Apr-24 23:00N 46°48' W 085°54'1212.3 120 / 221011.2 9.0 2.2
2017-Apr-24 22:00N 46°48' W 086°12'1413.7 120 / 121012.2 10.4 2.1
2017-Apr-24 21:00N 46°42' W 086°30'1212.3 100 / 161012.2 7.1 2.2
2017-Apr-24 20:00N 46°42' W 086°48'1212.3 090 / 121012.9 5.5 2.1
2017-Apr-24 19:00N 46°42' W 087°06'8 8.2 060 / 181013.2 3.3 2.4
2017-Apr-24 18:00N 46°42' W 087°18'1312.7 080 / 241014.627.0 2.6 2.0
2017-Apr-24 17:00N 46°54' W 087°24'1312.7 080 / 221015.9 2.3 2.3
2017-Apr-24 16:00N 47°06' W 087°30'1312.7 100 / 291016.3 2.0 1.9
2017-Apr-24 15:00N 47°18' W 087°36'1414.5 080 / 301017.627.0 1.6 1.9
2017-Apr-24 14:00N 47°30' W 087°48'8 8.1 090 / 301017.3 1.3 2.2
2017-Apr-24 13:00N 47°30' W 088°00'1413.5 080 / 291017.3 0.9 2.4
2017-Apr-24 12:00N 47°36' W 088°18'1616.2 070 / 241017.9 0.9 2.6
2017-Apr-24 11:00N 47°36' W 088°42'1010.1 070 / 241017.6 0.8 2.4
2017-Apr-24 10:00N 47°30' W 088°54'1212.2 090 / 311017.9 0.6 2.4
2017-Apr-24 09:00N 47°30' W 089°12'1212.2 070 / 231017.6 0.6 2.3
2017-Apr-24 08:00N 47°30' W 089°30'1413.6 070 / 261017.9 0.7 2.5
2017-Apr-24 07:00N 47°24' W 089°48'1212.2 060 / 281018.3 0.2 2.6
2017-Apr-24 06:00N 47°24' W 090°06'1212.2 050 / 271019.0 0.1 2.4
2017-Apr-24 05:00N 47°24' W 090°24'1413.6 070 / 201019.6 1.1 2.4
2017-Apr-24 04:00N 47°18' W 090°42'1212.2 070 / 221019.3 1.5 2.4
2017-Apr-24 03:00N 47°18' W 091°00'1212.2 050 / 201020.0 1.2 2.4
2017-Apr-24 02:00N 47°18' W 091°18'0 0.0 030 / 141021.0 0.8 2.6
2017-Apr-24 01:00N 47°18' W 091°18'0 0.0 030 / 101021.0 1.2 2.7
2017-Apr-24 00:00N 47°18' W 091°18'0 0.0 050 / 91021.3 1.4 2.9
2017-Apr-23 23:00N 47°18' W 091°18'0 0.0 070 / 71021.3 1.0 2.5
2017-Apr-23 22:00N 47°18' W 091°18'0 0.0 090 / 61021.7 1.0 2.6
2017-Apr-23 21:00N 47°18' W 091°18'0 0.0 080 / 71022.0 1.1 2.5
2017-Apr-23 20:00N 47°18' W 091°18'0 0.0 080 / 81022.7 1.3 2.7
2017-Apr-23 19:00N 47°18' W 091°18'4 4.1 090 / 61022.7 1.4 2.5
2017-Apr-23 18:00N 47°18' W 091°12'1212.2 100 / 111023.0 1.9 2.5
2017-Apr-23 17:00N 47°18' W 090°54'1212.2 090 / 141023.7 1.9 2.4
2017-Apr-23 16:00N 47°18' W 090°36'1413.6 040 / 121023.7 0.8 2.3
2017-Apr-23 15:00N 47°24' W 090°18'1212.2 030 / 111023.7 0.7 2.4
2017-Apr-23 14:00N 47°24' W 090°00'1616.2 040 / 101023.7 0.9 2.5
2017-Apr-23 13:00N 47°24' W 089°36'1212.2 030 / 151023.010.8 0.9 2.4
2017-Apr-23 12:00N 47°24' W 089°18'1212.2 050 / 161022.7 0.1 2.2
2017-Apr-23 11:00N 47°24' W 089°00'1717.3 020 / 191021.3 -0.3 2.3
2017-Apr-23 10:00N 47°30' W 088°36'1212.2 020 / 211020.7 -0.2 2.4
2017-Apr-23 09:00N 47°30' W 088°18'1212.2 010 / 251019.3 -0.1 2.4
2017-Apr-23 08:00N 47°30' W 088°00'1212.2 350 / 261017.9 1.6 2.2
2017-Apr-23 07:00N 47°30' W 087°42'1312.7 350 / 251015.9 1.8 2.1
2017-Apr-23 06:00N 47°18' W 087°36'1312.7 340 / 201016.6 2.9 1.8
2017-Apr-23 05:00N 47°06' W 087°30'1818.5 260 / 121016.9 3.9 1.8
2017-Apr-23 04:00N 46°48' W 087°24'1312.7 360 / 111016.3 7.6 2.0
2017-Apr-23 03:00N 46°36' W 087°18'7 7.3 360 / 201014.9 7.0 1.9
2017-Apr-23 02:00N 46°30' W 087°24'0 0.0 260 / 21016.3 13.5 3.5
2017-Apr-23 01:00N 46°30' W 087°24'0 0.0 210 / 51016.6 14.4 3.6
2017-Apr-23 00:00N 46°30' W 087°24'0 0.0 170 / 21017.3 12.3 3.8
2017-Apr-22 23:00N 46°30' W 087°24'0 0.0 140 / 31016.9 12.3 3.7
2017-Apr-22 22:00N 46°30' W 087°24'0 0.0 340 / 11017.3 13.1 3.8
2017-Apr-22 21:00N 46°30' W 087°24'4 4.1 030 / 51017.3 10.6 3.5
2017-Apr-22 20:00N 46°30' W 087°18'1413.8 080 / 141017.9 11.1 2.3
2017-Apr-22 19:00N 46°36' W 087°00'1413.7 110 / 121019.3 9.4 2.0
2017-Apr-22 18:00N 46°42' W 086°42'1212.3 160 / 101020.0 11.0 2.5
2017-Apr-22 17:00N 46°42' W 086°24'1212.3 190 / 61021.0 8.9 2.0
2017-Apr-22 16:00N 46°42' W 086°06'1413.7 240 / 81021.7 8.1 2.0
2017-Apr-22 15:00N 46°48' W 085°48'1212.3 220 / 101022.0 5.9 2.0
2017-Apr-22 14:00N 46°48' W 085°30'1212.3 220 / 101022.0 2.7 2.2
2017-Apr-22 13:00N 46°48' W 085°12'1212.3 240 / 121022.010.8 2.8 2.2
2017-Apr-22 12:00N 46°48' W 084°54'1312.7 290 / 121021.3 2.4 1.6
2017-Apr-22 11:00N 46°36' W 084°48'1413.8 260 / 101021.3 1.2 1.2
2017-Apr-22 10:00N 46°30' W 084°30'4 4.1 290 / 101021.0 2.2 1.8
2017-Apr-22 09:00N 46°30' W 084°24'4 4.1 250 / 101021.0 1.7 2.0
2017-Apr-22 08:00N 46°30' W 084°18'6 6.0 270 / 61020.1 1.1 2.0
2017-Apr-22 07:00N 46°24' W 084°18'1010.2 300 / 51019.8 0.7 2.3
2017-Apr-22 06:00N 46°18' W 084°06'6 6.0 280 / 111019.8 2.1 2.5
2017-Apr-22 05:00N 46°12' W 084°06'1514.6 300 / 101019.8 3.0 3.1
2017-Apr-22 04:00N 46°00' W 083°54'7 7.3 300 / 201018.4 4.0 3.6
2017-Apr-22 03:00N 45°54' W 083°48'1312.7 310 / 241017.7 4.7 2.3
2017-Apr-22 02:00N 45°42' W 083°42'1514.6 300 / 231018.1 4.6 2.1
2017-Apr-22 01:00N 45°30' W 083°30'1312.7 290 / 201017.4 4.1 2.1
2017-Apr-22 00:00N 45°18' W 083°24'0 0.0 300 / 271015.7 5.1 3.4
2017-Apr-21 23:00N 45°18' W 083°24'0 0.0 300 / 211015.7 5.6 3.7
2017-Apr-21 22:00N 45°18' W 083°24'0 0.0 300 / 201015.4 7.0 3.6
2017-Apr-21 21:00N 45°18' W 083°24'0 0.0 300 / 231014.3 6.3 3.6
2017-Apr-21 20:00N 45°18' W 083°24'0 0.0 300 / 221013.7 5.9 3.5
2017-Apr-21 19:00N 45°18' W 083°24'0 0.0 300 / 271012.3 5.4 3.5
2017-Apr-21 18:00N 45°18' W 083°24'0 0.0 300 / 191012.7 5.6 3.5
2017-Apr-21 17:00N 45°18' W 083°24'0 0.0 290 / 171012.0 4.8 3.5
2017-Apr-21 16:00N 45°18' W 083°24'0 0.0 290 / 221010.6 4.3 3.7
2017-Apr-21 15:00N 45°18' W 083°24'0 0.0 290 / 241009.9 3.9 3.6
2017-Apr-21 14:00N 45°18' W 083°24'0 0.0 290 / 221009.3 3.3 3.7
2017-Apr-21 13:00N 45°18' W 083°24'0 0.0 270 / 161008.9 4.3 3.9
2017-Apr-21 12:00N 45°18' W 083°24'0 0.0 280 / 131008.3 4.2 3.7
2017-Apr-21 11:00N 45°18' W 083°24'0 0.0 270 / 131007.6 4.1 3.6
2017-Apr-21 10:00N 45°18' W 083°24'0 0.0 270 / 161006.9 4.1 3.5
2017-Apr-21 09:00N 45°18' W 083°24'0 0.0 250 / 181006.6 4.3 3.4
2017-Apr-21 08:00N 45°18' W 083°24'0 0.0 240 / 131006.2 4.6 3.5
2017-Apr-21 07:00N 45°18' W 083°24'8 8.4 250 / 181005.2 5.3 2.7
2017-Apr-21 06:00N 45°18' W 083°12'1414.0 200 / 121005.9 3.7 2.6
2017-Apr-21 05:00N 45°12' W 082°54'4013.3 210 / 141005.9 3.4 2.9
2017-Apr-21 02:00N 45°00' W 082°00'1414.1 100 / 151007.6 4.2 2.7
2017-Apr-21 01:00N 44°54' W 081°42'1010.4 090 / 181007.6 4.3 2.6
2017-Apr-21 00:00N 44°48' W 081°30'1212.0 080 / 181007.6 5.0 2.7
2017-Apr-20 23:00N 44°36' W 081°30'7 7.4 090 / 111009.3 6.9 3.2
2017-Apr-20 22:00N 44°30' W 081°36'1312.7 100 / 181008.6 7.3 2.9
2017-Apr-20 21:00N 44°18' W 081°42'7 7.4 100 / 151009.3 7.0 2.9
2017-Apr-20 20:00N 44°12' W 081°48'1312.8 100 / 201009.9 5.9 3.1
2017-Apr-20 19:00N 44°00' W 081°54'6 6.0 100 / 141012.0 7.5 2.7
2017-Apr-20 18:00N 43°54' W 081°54'1212.0 090 / 151012.3 7.1 2.8
2017-Apr-20 17:00N 43°42' W 081°54'1212.0 100 / 201013.0 6.7 2.7
2017-Apr-20 16:00N 43°30' W 081°54'7 7.4 100 / 161013.7 6.5 2.9
2017-Apr-20 15:00N 43°24' W 082°00'7 7.4 110 / 301012.0 6.5 2.9
2017-Apr-20 14:00N 43°18' W 082°06'1110.6 040 / 151016.0 5.9 3.1
2017-Apr-20 13:00N 43°12' W 082°18'7 7.4 050 / 141015.7 6.8 3.2
2017-Apr-20 12:00N 43°06' W 082°24'1212.0 140 / 171014.7 8.1 4.6
2017-Apr-20 11:00N 42°54' W 082°24'7 7.4 110 / 91015.7 7.7 4.8
2017-Apr-20 10:00N 42°48' W 082°30'1212.0 080 / 31016.4 6.5 5.1
2017-Apr-20 09:00N 42°36' W 082°30'1110.7 010 / 91016.7 6.6 5.4
2017-Apr-20 08:00N 42°30' W 082°42'1110.7 020 / 91018.2 7.7 5.5
2017-Apr-20 07:00N 42°24' W 082°54'1110.7 010 / 191018.2 8.0 8.3
2017-Apr-20 06:00N 42°18' W 083°06'0 0.0 010 / 121018.2 9.5 9.5
2017-Apr-20 05:00N 42°18' W 083°06'4 4.4 060 / 71018.9 10.0 16.1
2017-Apr-20 04:00N 42°18' W 083°12'0 0.0 020 / 81020.3 10.3 17.0
2017-Apr-20 03:00N 42°18' W 083°12'0 0.0 020 / 81020.9 11.1 17.0
2017-Apr-20 02:00N 42°18' W 083°12'0 0.0 020 / 61019.9 12.0 16.8
2017-Apr-20 01:00N 42°18' W 083°12'0 0.0 070 / 51018.6 12.0 15.0
2017-Apr-20 00:00N 42°18' W 083°12'0 0.0 240 / 41017.5 18.1 13.8
2017-Apr-19 23:00N 42°18' W 083°12'4 4.4 010 / 41016.9 17.7 14.6
2017-Apr-19 22:00N 42°18' W 083°06'0 0.0 310 / 151017.9 18.2 15.3
2017-Apr-19 21:00N 42°18' W 083°06'4 4.4 320 / 121016.2 19.7 9.2
2017-Apr-19 20:00N 42°18' W 083°00'0 0.0 290 / 81015.5 23.2 8.7
2017-Apr-19 19:00N 42°18' W 083°00'0 0.0 260 / 81015.9 22.8 8.6
2017-Apr-19 18:00N 42°18' W 083°00'0 0.0 250 / 121016.2 21.9 8.1
2017-Apr-19 17:00N 42°18' W 083°00'0 0.0 220 / 101015.9 21.7 8.1
2017-Apr-19 16:00N 42°18' W 083°00'0 0.0 240 / 141016.2 20.0 7.8
2017-Apr-19 15:00N 42°18' W 083°00'7 7.5 210 / 111016.2 19.8 8.8
2017-Apr-19 14:00N 42°24' W 082°54'1110.7 200 / 161015.9 16.4 8.6
2017-Apr-19 13:00N 42°30' W 082°42'1110.7 200 / 171015.9 11.7 4.8
2017-Apr-19 12:00N 42°36' W 082°30'1212.0 220 / 81016.4 14.5 5.1
2017-Apr-19 11:00N 42°48' W 082°30'7 7.4 150 / 71015.7 14.5 4.9
2017-Apr-19 10:00N 42°54' W 082°24'1212.0 190 / 111015.4 11.9 4.7
2017-Apr-19 09:00N 43°06' W 082°24'1212.0 160 / 191015.0 11.0 4.2
2017-Apr-19 08:00N 43°18' W 082°24'1212.0 140 / 161015.0 9.7 2.8
2017-Apr-19 07:00N 43°30' W 082°24'1312.8 140 / 141016.727.0 6.4 2.5
2017-Apr-19 06:00N 43°42' W 082°30'1212.0 150 / 191017.4 5.3 2.5
2017-Apr-19 05:00N 43°54' W 082°30'1312.8 140 / 241017.1 5.5 2.6
2017-Apr-19 04:00N 44°06' W 082°36'6412.7 140 / 231018.1 5.3 2.8
2017-Apr-18 23:00N 45°06' W 083°06'1312.7 090 / 231020.4 3.7 2.5
2017-Apr-18 22:00N 45°18' W 083°12'1514.7 090 / 211021.5 3.3 2.6
2017-Apr-18 21:00N 45°30' W 083°24'   100 / 231021.8 2.9 2.2
Track history (hours):
 
Tides and Currents Weather Stations Pressure Air Temp Water Temp Dewpoint Dewpoint Depression Visibility Wind Speed Wind Dir Waves Ship Positions

Herbert C Jackson

Owner: THE INTERLAKE STEAMSHIP COMPANY, Middleburg Heights, OH. More information available from US FCC via Universal Licensing System and Coast Guard Vessel Documentation Center.

Last reported at 2017-Apr-28 21:00 UTC. Time now 2017-Apr-28 23:52 UTC.
Position N 45°48' W 083°12'.

Length 239 m; draft 6.2 m.

Type: Cargo ship. MMSI: 366904930.

Wind from 280 at 31 knots

Barometer 1011.6 mb
Air temperature 3.0 ° C
Water temperature 2.9 ° C

Date/timePositionNaut miles runAvg speedWind from/ knotsBaromVisibWave heightAir tempDewpointWater temp
2017-Apr-28 21:00N 45°48' W 083°12'1212.0 280 / 311011.6 3.0 2.9
2017-Apr-28 20:00N 45°36' W 083°12'1312.7 300 / 221012.0 2.9 2.6
2017-Apr-28 19:00N 45°24' W 083°06'8113.5 350 / 131012.0 2.8 2.8
2017-Apr-28 13:00N 44°06' W 082°36'1312.8 240 / 171012.310.8 6.9 2.9
2017-Apr-28 12:00N 43°54' W 082°30'1818.0 240 / 191012.0 7.3 3.5
2017-Apr-28 11:00N 43°36' W 082°30'1212.0 230 / 221012.3 7.4 3.9
2017-Apr-28 10:00N 43°24' W 082°30'1312.8 240 / 141012.0 8.4 5.0
2017-Apr-28 09:00N 43°12' W 082°24'1212.0 230 / 91011.3 9.6 5.2
2017-Apr-28 08:00N 43°00' W 082°24'1312.8 220 / 81011.3 10.3 6.2
2017-Apr-28 07:00N 42°48' W 082°30'6 6.0 240 / 61011.3 10.2 6.6
2017-Apr-28 06:00N 42°42' W 082°30'1312.8 250 / 141010.6 10.5 7.2
2017-Apr-28 05:00N 42°30' W 082°36'1110.7 270 / 131010.1 10.7 7.5
2017-Apr-28 04:00N 42°24' W 082°48'1110.7 270 / 191009.8 11.1 9.0
2017-Apr-28 03:00N 42°18' W 083°00'4 4.4 250 / 261008.7 11.2 10.5
2017-Apr-28 02:00N 42°18' W 083°06'0 0.0 230 / 121007.7 11.9 10.8
2017-Apr-28 01:00N 42°18' W 083°06'0 0.0 240 / 151006.4 12.5 10.9
2017-Apr-28 00:00N 42°18' W 083°06'1212.0 240 / 151005.4 14.1 10.8
2017-Apr-27 23:00N 42°06' W 083°06'6 6.0 230 / 271004.3 14.3 10.4
2017-Apr-27 22:00N 42°00' W 083°06'1110.8 240 / 331003.2 14.9 10.7
2017-Apr-27 21:00N 41°54' W 082°54'1313.4 230 / 281001.2 14.9 9.5
2017-Apr-27 20:00N 41°54' W 082°36'1110.8 230 / 251000.5 15.1 9.2
2017-Apr-27 19:00N 41°48' W 082°24'1514.7 190 / 211000.5 14.2 6.8
2017-Apr-27 18:00N 41°42' W 082°06'1110.8 250 / 181000.2 13.8 8.5
2017-Apr-27 17:00N 41°36' W 081°54'1110.8 180 / 261000.2 22.0 10.4
2017-Apr-27 16:00N 41°30' W 081°42'0 0.0 180 / 201000.8 25.9 11.5
2017-Apr-27 15:00N 41°30' W 081°42'0 0.0 180 / 211001.2 24.1 11.5
2017-Apr-27 14:00N 41°30' W 081°42'0 0.0 160 / 171001.2 23.8 12.0
2017-Apr-27 13:00N 41°30' W 081°42'0 0.0 130 / 81001.9 22.2 16.0
2017-Apr-27 12:00N 41°30' W 081°42'0 0.0 130 / 41002.5 21.6 16.5
2017-Apr-27 11:00N 41°30' W 081°42'0 0.0 150 / 91002.5 21.2 17.2
2017-Apr-27 10:00N 41°30' W 081°42'0 0.0 140 / 101001.9 21.0 17.1
2017-Apr-27 09:00N 41°30' W 081°42'0 0.0 270 / 21001.5 20.3 16.3
2017-Apr-27 08:00N 41°30' W 081°42'0 0.0 150 / 41001.9 21.0 16.2
2017-Apr-27 07:00N 41°30' W 081°42'0 0.0 150 / 21002.2 21.4 16.2
2017-Apr-27 06:00N 41°30' W 081°42'0 0.0 140 / 81002.2 20.8 16.9
2017-Apr-27 05:00N 41°30' W 081°42'0 0.0 140 / 81002.5 22.3 16.0
2017-Apr-27 04:00N 41°30' W 081°42'0 0.0 070 / 51002.9 22.7 15.6
2017-Apr-27 03:00N 41°30' W 081°42'0 0.0 140 / 71003.2 24.1 14.3
2017-Apr-27 02:00N 41°30' W 081°42'0 0.0 150 / 71002.9 24.9 10.5
2017-Apr-27 01:00N 41°30' W 081°42'0 0.0 150 / 91002.5 25.9 10.2
2017-Apr-27 00:00N 41°30' W 081°42'0 0.0 140 / 91002.5 27.0 10.0
2017-Apr-26 23:00N 41°30' W 081°42'0 0.0 170 / 121001.9 27.9 10.1
2017-Apr-26 22:00N 41°30' W 081°42'0 0.0 160 / 141001.9 27.9 10.2
2017-Apr-26 21:00N 41°30' W 081°42'0 0.0 150 / 141001.9 27.6 10.4
2017-Apr-26 20:00N 41°30' W 081°42'0 0.0 140 / 171002.5 26.5 10.4
2017-Apr-26 19:00N 41°30' W 081°42'0 0.0 190 / 81003.9 26.4 10.2
2017-Apr-26 17:00N 41°30' W 081°42'1110.8 130 / 161004.9 23.2 9.7
2017-Apr-26 16:00N 41°36' W 081°54'1110.8 100 / 121005.6 17.8 7.9
2017-Apr-26 15:00N 41°42' W 082°06'1514.7 100 / 151005.9 11.7 6.4
2017-Apr-26 14:00N 41°48' W 082°24'1514.7 100 / 161005.9 9.5 6.5
2017-Apr-26 13:00N 41°54' W 082°42'9 8.9 110 / 151006.3 10.8 8.3
2017-Apr-26 12:00N 41°54' W 082°54'9 8.9 120 / 281005.9 11.2 9.0
2017-Apr-26 11:00N 41°54' W 083°06'1212.0 100 / 171005.6 11.4 9.7
2017-Apr-26 10:00N 42°06' W 083°06'1212.0 100 / 111005.7 13.1 9.3
2017-Apr-26 09:00N 42°18' W 083°06'1110.7 120 / 71006.4 13.0 9.2
2017-Apr-26 08:00N 42°24' W 082°54'1110.7 100 / 81006.4 12.1 8.3
2017-Apr-26 07:00N 42°30' W 082°42'7 7.5 120 / 151007.0 9.5 6.9
2017-Apr-26 06:00N 42°36' W 082°36'7 7.4 120 / 71008.3 11.6 6.4
2017-Apr-26 05:00N 42°42' W 082°30'1212.0 140 / 81007.9 13.1 6.4
2017-Apr-26 04:00N 42°54' W 082°30'7 7.4 120 / 101007.9 14.6 6.3
2017-Apr-26 03:00N 43°00' W 082°24'1212.0 120 / 161007.6 13.9 5.7
2017-Apr-26 02:00N 43°12' W 082°24'1212.0 100 / 231007.2 9.9 3.6
2017-Apr-26 01:00N 43°24' W 082°24'1918.5 100 / 231006.9 8.1 3.0
2017-Apr-26 00:00N 43°42' W 082°30'1212.0 110 / 181007.2 7.8 2.8
2017-Apr-25 23:00N 43°54' W 082°30'1312.8 110 / 201007.6 8.2 2.8
2017-Apr-25 22:00N 44°06' W 082°36'1312.7 100 / 121008.6 6.9 2.9
2017-Apr-25 21:00N 44°18' W 082°42'2412.2 110 / 161008.9 6.9 2.7
2017-Apr-25 19:00N 44°42' W 082°48'1312.7 130 / 201009.3 5.5 2.5
2017-Apr-25 18:00N 44°54' W 082°54'1312.7 120 / 221009.6 4.7 2.7
2017-Apr-25 17:00N 45°06' W 083°00'7 7.3 120 / 161010.6 4.5 2.6
2017-Apr-25 16:00N 45°12' W 083°06'1514.7 120 / 171011.3 4.1 2.8
2017-Apr-25 15:00N 45°24' W 083°18'1514.7 110 / 201011.0 3.9 2.4
2017-Apr-25 14:00N 45°36' W 083°30'2512.3 090 / 221011.3 3.7 2.1
2017-Apr-25 12:00N 45°54' W 083°54'1312.7 090 / 251012.0 4.3 3.0
2017-Apr-25 11:00N 46°06' W 084°00'7 7.3 070 / 171013.0 4.0 4.4
2017-Apr-25 10:00N 46°12' W 084°06'7 7.3 100 / 161012.7 5.5 4.0
2017-Apr-25 09:00N 46°18' W 084°12'7 7.3 110 / 81013.7 4.9 3.1
2017-Apr-25 08:00N 46°24' W 084°18'6 6.0 110 / 201013.0 6.6 2.9
2017-Apr-25 07:00N 46°30' W 084°18'4 4.1 120 / 91014.0 7.2 2.8
2017-Apr-25 06:00N 46°30' W 084°24'0 0.0 120 / 101014.2 7.5 2.7
2017-Apr-25 05:00N 46°30' W 084°24'8 8.3 110 / 141013.5 7.4 2.3
2017-Apr-25 04:00N 46°30' W 084°36'1514.6 110 / 301011.5 6.4 1.4
2017-Apr-25 03:00N 46°42' W 084°48'1010.2 110 / 221012.5 5.7 1.3
2017-Apr-25 02:00N 46°48' W 085°00'1212.3 140 / 221012.2 4.9 1.8
2017-Apr-25 01:00N 46°48' W 085°18'1212.3 120 / 221012.2 6.0 2.7
2017-Apr-25 00:00N 46°48' W 085°36'1212.3 110 / 221011.5 6.6 2.3
2017-Apr-24 23:00N 46°48' W 085°54'1212.3 120 / 221011.2 9.0 2.2
2017-Apr-24 22:00N 46°48' W 086°12'1413.7 120 / 121012.2 10.4 2.1
2017-Apr-24 21:00N 46°42' W 086°30'1212.3 100 / 161012.2 7.1 2.2
2017-Apr-24 20:00N 46°42' W 086°48'1212.3 090 / 121012.9 5.5 2.1
2017-Apr-24 19:00N 46°42' W 087°06'8 8.2 060 / 181013.2 3.3 2.4
2017-Apr-24 18:00N 46°42' W 087°18'1312.7 080 / 241014.627.0 2.6 2.0
2017-Apr-24 17:00N 46°54' W 087°24'1312.7 080 / 221015.9 2.3 2.3
2017-Apr-24 16:00N 47°06' W 087°30'1312.7 100 / 291016.3 2.0 1.9
2017-Apr-24 15:00N 47°18' W 087°36'1414.5 080 / 301017.627.0 1.6 1.9
2017-Apr-24 14:00N 47°30' W 087°48'8 8.1 090 / 301017.3 1.3 2.2
2017-Apr-24 13:00N 47°30' W 088°00'1413.5 080 / 291017.3 0.9 2.4
2017-Apr-24 12:00N 47°36' W 088°18'1616.2 070 / 241017.9 0.9 2.6
2017-Apr-24 11:00N 47°36' W 088°42'1010.1 070 / 241017.6 0.8 2.4
2017-Apr-24 10:00N 47°30' W 088°54'1212.2 090 / 311017.9 0.6 2.4
2017-Apr-24 09:00N 47°30' W 089°12'1212.2 070 / 231017.6 0.6 2.3
2017-Apr-24 08:00N 47°30' W 089°30'1413.6 070 / 261017.9 0.7 2.5
2017-Apr-24 07:00N 47°24' W 089°48'1212.2 060 / 281018.3 0.2 2.6
2017-Apr-24 06:00N 47°24' W 090°06'1212.2 050 / 271019.0 0.1 2.4
2017-Apr-24 05:00N 47°24' W 090°24'1413.6 070 / 201019.6 1.1 2.4
2017-Apr-24 04:00N 47°18' W 090°42'1212.2 070 / 221019.3 1.5 2.4
2017-Apr-24 03:00N 47°18' W 091°00'1212.2 050 / 201020.0 1.2 2.4
2017-Apr-24 02:00N 47°18' W 091°18'0 0.0 030 / 141021.0 0.8 2.6
2017-Apr-24 01:00N 47°18' W 091°18'0 0.0 030 / 101021.0 1.2 2.7
2017-Apr-24 00:00N 47°18' W 091°18'0 0.0 050 / 91021.3 1.4 2.9
2017-Apr-23 23:00N 47°18' W 091°18'0 0.0 070 / 71021.3 1.0 2.5
2017-Apr-23 22:00N 47°18' W 091°18'0 0.0 090 / 61021.7 1.0 2.6
2017-Apr-23 21:00N 47°18' W 091°18'0 0.0 080 / 71022.0 1.1 2.5
2017-Apr-23 20:00N 47°18' W 091°18'0 0.0 080 / 81022.7 1.3 2.7
2017-Apr-23 19:00N 47°18' W 091°18'4 4.1 090 / 61022.7 1.4 2.5
2017-Apr-23 18:00N 47°18' W 091°12'1212.2 100 / 111023.0 1.9 2.5
2017-Apr-23 17:00N 47°18' W 090°54'1212.2 090 / 141023.7 1.9 2.4
2017-Apr-23 16:00N 47°18' W 090°36'1413.6 040 / 121023.7 0.8 2.3
2017-Apr-23 15:00N 47°24' W 090°18'1212.2 030 / 111023.7 0.7 2.4
2017-Apr-23 14:00N 47°24' W 090°00'1616.2 040 / 101023.7 0.9 2.5
2017-Apr-23 13:00N 47°24' W 089°36'1212.2 030 / 151023.010.8 0.9 2.4
2017-Apr-23 12:00N 47°24' W 089°18'1212.2 050 / 161022.7 0.1 2.2
2017-Apr-23 11:00N 47°24' W 089°00'1717.3 020 / 191021.3 -0.3 2.3
2017-Apr-23 10:00N 47°30' W 088°36'1212.2 020 / 211020.7 -0.2 2.4
2017-Apr-23 09:00N 47°30' W 088°18'1212.2 010 / 251019.3 -0.1 2.4
2017-Apr-23 08:00N 47°30' W 088°00'1212.2 350 / 261017.9 1.6 2.2
2017-Apr-23 07:00N 47°30' W 087°42'1312.7 350 / 251015.9 1.8 2.1
2017-Apr-23 06:00N 47°18' W 087°36'1312.7 340 / 201016.6 2.9 1.8
2017-Apr-23 05:00N 47°06' W 087°30'1818.5 260 / 121016.9 3.9 1.8
2017-Apr-23 04:00N 46°48' W 087°24'1312.7 360 / 111016.3 7.6 2.0
2017-Apr-23 03:00N 46°36' W 087°18'7 7.3 360 / 201014.9 7.0 1.9
2017-Apr-23 02:00N 46°30' W 087°24'0 0.0 260 / 21016.3 13.5 3.5
2017-Apr-23 01:00N 46°30' W 087°24'0 0.0 210 / 51016.6 14.4 3.6
2017-Apr-23 00:00N 46°30' W 087°24'0 0.0 170 / 21017.3 12.3 3.8
2017-Apr-22 23:00N 46°30' W 087°24'0 0.0 140 / 31016.9 12.3 3.7
2017-Apr-22 22:00N 46°30' W 087°24'0 0.0 340 / 11017.3 13.1 3.8
2017-Apr-22 21:00N 46°30' W 087°24'4 4.1 030 / 51017.3 10.6 3.5
2017-Apr-22 20:00N 46°30' W 087°18'1413.8 080 / 141017.9 11.1 2.3
2017-Apr-22 19:00N 46°36' W 087°00'1413.7 110 / 121019.3 9.4 2.0
2017-Apr-22 18:00N 46°42' W 086°42'1212.3 160 / 101020.0 11.0 2.5
2017-Apr-22 17:00N 46°42' W 086°24'1212.3 190 / 61021.0 8.9 2.0
2017-Apr-22 16:00N 46°42' W 086°06'1413.7 240 / 81021.7 8.1 2.0
2017-Apr-22 15:00N 46°48' W 085°48'1212.3 220 / 101022.0 5.9 2.0
2017-Apr-22 14:00N 46°48' W 085°30'1212.3 220 / 101022.0 2.7 2.2
2017-Apr-22 13:00N 46°48' W 085°12'1212.3 240 / 121022.010.8 2.8 2.2
2017-Apr-22 12:00N 46°48' W 084°54'1312.7 290 / 121021.3 2.4 1.6
2017-Apr-22 11:00N 46°36' W 084°48'1413.8 260 / 101021.3 1.2 1.2
2017-Apr-22 10:00N 46°30' W 084°30'4 4.1 290 / 101021.0 2.2 1.8
2017-Apr-22 09:00N 46°30' W 084°24'4 4.1 250 / 101021.0 1.7 2.0
2017-Apr-22 08:00N 46°30' W 084°18'6 6.0 270 / 61020.1 1.1 2.0
2017-Apr-22 07:00N 46°24' W 084°18'1010.2 300 / 51019.8 0.7 2.3
2017-Apr-22 06:00N 46°18' W 084°06'6 6.0 280 / 111019.8 2.1 2.5
2017-Apr-22 05:00N 46°12' W 084°06'1514.6 300 / 101019.8 3.0 3.1
2017-Apr-22 04:00N 46°00' W 083°54'7 7.3 300 / 201018.4 4.0 3.6
2017-Apr-22 03:00N 45°54' W 083°48'1312.7 310 / 241017.7 4.7 2.3
2017-Apr-22 02:00N 45°42' W 083°42'1514.6 300 / 231018.1 4.6 2.1
2017-Apr-22 01:00N 45°30' W 083°30'1312.7 290 / 201017.4 4.1 2.1
2017-Apr-22 00:00N 45°18' W 083°24'0 0.0 300 / 271015.7 5.1 3.4
2017-Apr-21 23:00N 45°18' W 083°24'0 0.0 300 / 211015.7 5.6 3.7
2017-Apr-21 22:00N 45°18' W 083°24'0 0.0 300 / 201015.4 7.0 3.6
2017-Apr-21 21:00N 45°18' W 083°24'0 0.0 300 / 231014.3 6.3 3.6
2017-Apr-21 20:00N 45°18' W 083°24'0 0.0 300 / 221013.7 5.9 3.5
2017-Apr-21 19:00N 45°18' W 083°24'0 0.0 300 / 271012.3 5.4 3.5
2017-Apr-21 18:00N 45°18' W 083°24'0 0.0 300 / 191012.7 5.6 3.5
2017-Apr-21 17:00N 45°18' W 083°24'0 0.0 290 / 171012.0 4.8 3.5
2017-Apr-21 16:00N 45°18' W 083°24'0 0.0 290 / 221010.6 4.3 3.7
2017-Apr-21 15:00N 45°18' W 083°24'0 0.0 290 / 241009.9 3.9 3.6
2017-Apr-21 14:00N 45°18' W 083°24'0 0.0 290 / 221009.3 3.3 3.7
2017-Apr-21 13:00N 45°18' W 083°24'0 0.0 270 / 161008.9 4.3 3.9
2017-Apr-21 12:00N 45°18' W 083°24'0 0.0 280 / 131008.3 4.2 3.7
2017-Apr-21 11:00N 45°18' W 083°24'0 0.0 270 / 131007.6 4.1 3.6
2017-Apr-21 10:00N 45°18' W 083°24'0 0.0 270 / 161006.9 4.1 3.5
2017-Apr-21 09:00N 45°18' W 083°24'0 0.0 250 / 181006.6 4.3 3.4
2017-Apr-21 08:00N 45°18' W 083°24'0 0.0 240 / 131006.2 4.6 3.5
2017-Apr-21 07:00N 45°18' W 083°24'8 8.4 250 / 181005.2 5.3 2.7
2017-Apr-21 06:00N 45°18' W 083°12'1414.0 200 / 121005.9 3.7 2.6
2017-Apr-21 05:00N 45°12' W 082°54'4013.3 210 / 141005.9 3.4 2.9
2017-Apr-21 02:00N 45°00' W 082°00'1414.1 100 / 151007.6 4.2 2.7
2017-Apr-21 01:00N 44°54' W 081°42'1010.4 090 / 181007.6 4.3 2.6
2017-Apr-21 00:00N 44°48' W 081°30'1212.0 080 / 181007.6 5.0 2.7
2017-Apr-20 23:00N 44°36' W 081°30'7 7.4 090 / 111009.3 6.9 3.2
2017-Apr-20 22:00N 44°30' W 081°36'1312.7 100 / 181008.6 7.3 2.9
2017-Apr-20 21:00N 44°18' W 081°42'7 7.4 100 / 151009.3 7.0 2.9
2017-Apr-20 20:00N 44°12' W 081°48'1312.8 100 / 201009.9 5.9 3.1
2017-Apr-20 19:00N 44°00' W 081°54'6 6.0 100 / 141012.0 7.5 2.7
2017-Apr-20 18:00N 43°54' W 081°54'1212.0 090 / 151012.3 7.1 2.8
2017-Apr-20 17:00N 43°42' W 081°54'1212.0 100 / 201013.0 6.7 2.7
2017-Apr-20 16:00N 43°30' W 081°54'7 7.4 100 / 161013.7 6.5 2.9
2017-Apr-20 15:00N 43°24' W 082°00'7 7.4 110 / 301012.0 6.5 2.9
2017-Apr-20 14:00N 43°18' W 082°06'1110.6 040 / 151016.0 5.9 3.1
2017-Apr-20 13:00N 43°12' W 082°18'7 7.4 050 / 141015.7 6.8 3.2
2017-Apr-20 12:00N 43°06' W 082°24'1212.0 140 / 171014.7 8.1 4.6
2017-Apr-20 11:00N 42°54' W 082°24'7 7.4 110 / 91015.7 7.7 4.8
2017-Apr-20 10:00N 42°48' W 082°30'1212.0 080 / 31016.4 6.5 5.1
2017-Apr-20 09:00N 42°36' W 082°30'1110.7 010 / 91016.7 6.6 5.4
2017-Apr-20 08:00N 42°30' W 082°42'1110.7 020 / 91018.2 7.7 5.5
2017-Apr-20 07:00N 42°24' W 082°54'1110.7 010 / 191018.2 8.0 8.3
2017-Apr-20 06:00N 42°18' W 083°06'0 0.0 010 / 121018.2 9.5 9.5
2017-Apr-20 05:00N 42°18' W 083°06'4 4.4 060 / 71018.9 10.0 16.1
2017-Apr-20 04:00N 42°18' W 083°12'0 0.0 020 / 81020.3 10.3 17.0
2017-Apr-20 03:00N 42°18' W 083°12'0 0.0 020 / 81020.9 11.1 17.0
2017-Apr-20 02:00N 42°18' W 083°12'0 0.0 020 / 61019.9 12.0 16.8
2017-Apr-20 01:00N 42°18' W 083°12'0 0.0 070 / 51018.6 12.0 15.0
2017-Apr-20 00:00N 42°18' W 083°12'0 0.0 240 / 41017.5 18.1 13.8
2017-Apr-19 23:00N 42°18' W 083°12'4 4.4 010 / 41016.9 17.7 14.6
2017-Apr-19 22:00N 42°18' W 083°06'0 0.0 310 / 151017.9 18.2 15.3
2017-Apr-19 21:00N 42°18' W 083°06'4 4.4 320 / 121016.2 19.7 9.2
2017-Apr-19 20:00N 42°18' W 083°00'0 0.0 290 / 81015.5 23.2 8.7
2017-Apr-19 19:00N 42°18' W 083°00'0 0.0 260 / 81015.9 22.8 8.6
2017-Apr-19 18:00N 42°18' W 083°00'0 0.0 250 / 121016.2 21.9 8.1
2017-Apr-19 17:00N 42°18' W 083°00'0 0.0 220 / 101015.9 21.7 8.1
2017-Apr-19 16:00N 42°18' W 083°00'0 0.0 240 / 141016.2 20.0 7.8
2017-Apr-19 15:00N 42°18' W 083°00'7 7.5 210 / 111016.2 19.8 8.8
2017-Apr-19 14:00N 42°24' W 082°54'1110.7 200 / 161015.9 16.4 8.6
2017-Apr-19 13:00N 42°30' W 082°42'1110.7 200 / 171015.9 11.7 4.8
2017-Apr-19 12:00N 42°36' W 082°30'1212.0 220 / 81016.4 14.5 5.1
2017-Apr-19 11:00N 42°48' W 082°30'7 7.4 150 / 71015.7 14.5 4.9
2017-Apr-19 10:00N 42°54' W 082°24'1212.0 190 / 111015.4 11.9 4.7
2017-Apr-19 09:00N 43°06' W 082°24'1212.0 160 / 191015.0 11.0 4.2
2017-Apr-19 08:00N 43°18' W 082°24'1212.0 140 / 161015.0 9.7 2.8
2017-Apr-19 07:00N 43°30' W 082°24'1312.8 140 / 141016.727.0 6.4 2.5
2017-Apr-19 06:00N 43°42' W 082°30'1212.0 150 / 191017.4 5.3 2.5
2017-Apr-19 05:00N 43°54' W 082°30'1312.8 140 / 241017.1 5.5 2.6
2017-Apr-19 04:00N 44°06' W 082°36'6412.7 140 / 231018.1 5.3 2.8
2017-Apr-18 23:00N 45°06' W 083°06'1312.7 090 / 231020.4 3.7 2.5
2017-Apr-18 22:00N 45°18' W 083°12'1514.7 090 / 211021.5 3.3 2.6
2017-Apr-18 21:00N 45°30' W 083°24'   100 / 231021.8 2.9 2.2

Dump ship's entire track history